地図

経路データ

SID SEASON NUMBER BASIN SUBBASIN NAME ISO_TIME NATURE LAT LON WMO_WIND WMO_PRES WMO_AGENCY TRACK_TYPE DIST2LAND LANDFALL IFLAG USA_AGENCY USA_ATCF_ID USA_LAT USA_LON USA_RECORD USA_STATUS USA_WIND USA_PRES USA_SSHS USA_R34_NE USA_R34_SE USA_R34_SW USA_R34_NW USA_R50_NE USA_R50_SE USA_R50_SW USA_R50_NW USA_R64_NE USA_R64_SE USA_R64_SW USA_R64_NW USA_POCI USA_ROCI USA_RMW USA_EYE TOKYO_LAT TOKYO_LON TOKYO_GRADE TOKYO_WIND TOKYO_PRES TOKYO_R50_DIR TOKYO_R50_LONG TOKYO_R50_SHORT TOKYO_R30_DIR TOKYO_R30_LONG TOKYO_R30_SHORT TOKYO_LAND CMA_LAT CMA_LON CMA_CAT CMA_WIND CMA_PRES HKO_LAT HKO_LON HKO_CAT HKO_WIND HKO_PRES NEWDELHI_LAT NEWDELHI_LON NEWDELHI_GRADE NEWDELHI_WIND NEWDELHI_PRES NEWDELHI_CI NEWDELHI_DP NEWDELHI_POCI REUNION_LAT REUNION_LON REUNION_TYPE REUNION_WIND REUNION_PRES REUNION_TNUM REUNION_CI REUNION_RMW REUNION_R34_NE REUNION_R34_SE REUNION_R34_SW REUNION_R34_NW REUNION_R50_NE REUNION_R50_SE REUNION_R50_SW REUNION_R50_NW REUNION_R64_NE REUNION_R64_SE REUNION_R64_SW REUNION_R64_NW BOM_LAT BOM_LON BOM_TYPE BOM_WIND BOM_PRES BOM_TNUM BOM_CI BOM_RMW BOM_R34_NE BOM_R34_SE BOM_R34_SW BOM_R34_NW BOM_R50_NE BOM_R50_SE BOM_R50_SW BOM_R50_NW BOM_R64_NE BOM_R64_SE BOM_R64_SW BOM_R64_NW BOM_ROCI BOM_POCI BOM_EYE BOM_POS_METHOD BOM_PRES_METHOD NADI_LAT NADI_LON NADI_CAT NADI_WIND NADI_PRES WELLINGTON_LAT WELLINGTON_LON WELLINGTON_WIND WELLINGTON_PRES DS824_LAT DS824_LON DS824_STAGE DS824_WIND DS824_PRES TD9636_LAT TD9636_LON TD9636_STAGE TD9636_WIND TD9636_PRES TD9635_LAT TD9635_LON TD9635_WIND TD9635_PRES TD9635_ROCI NEUMANN_LAT NEUMANN_LON NEUMANN_CLASS NEUMANN_WIND NEUMANN_PRES MLC_LAT MLC_LON MLC_CLASS MLC_WIND MLC_PRES USA_GUST BOM_GUST BOM_GUST_PER REUNION_GUST REUNION_GUST_PER USA_SEAHGT USA_SEARAD_NE USA_SEARAD_SE USA_SEARAD_SW USA_SEARAD_NW STORM_SPEED STORM_DIR
1970040S16083 1970 13 SI MM JANE 1970-02-09 00:00:00 TS -15.5000 82.6000 main 2364 2364 O________OO___ jtwc_sh SH141970 -15.5000 82.6000 -1 -15.5000 82.6000 TC 25 -15.5000 82.6000 1 7 247
1970040S16083 1970 13 SI MM JANE 1970-02-09 03:00:00 TS -15.6445 82.2522 main 2396 2396 P________PP___ SH141970 -15.6526 82.2501 -1 -15.6526 82.2501 TC 25 -15.6284 82.2562 1 7 247
1970040S16083 1970 13 SI MM JANE 1970-02-09 06:00:00 TS -15.7884 81.9033 main 2435 2434 O________OP___ jtwc_sh SH141970 -15.8000 81.9000 -1 -15.8000 81.9000 TC 25 -15.7653 81.9099 1 7 247
1970040S16083 1970 13 SI MM JANE 1970-02-09 09:00:00 TS -15.9348 81.5528 main 2444 2444 P________PP___ SH141970 -15.9424 81.5499 -1 -15.9424 81.5499 TC 25 -15.9195 81.5586 1 7 245
1970040S16083 1970 13 SI MM JANE 1970-02-09 12:00:00 TS -16.1000 81.2000 main 2465 2465 O________OO___ jtwc_sh SH141970 -16.1000 81.2000 -1 -16.1000 81.2000 TC 25 -16.1000 81.2000 1 8 242
1970040S16083 1970 13 SI MM JANE 1970-02-09 15:00:00 TS -16.2983 80.8402 main 2467 2430 P________PP___ SH141970 -16.2925 80.8425 -1 -16.2925 80.8425 TC 25 -16.3101 80.8357 1 8 239
1970040S16083 1970 13 SI MM JANE 1970-02-09 18:00:00 TS -16.5101 80.4943 main 2430 2394 O________OP___ jtwc_sh SH141970 -16.5000 80.5000 -1 -16.5000 80.5000 TC 25 -16.5302 80.4830 1 8 236
1970040S16083 1970 13 SI MM JANE 1970-02-09 21:00:00 TS -16.7267 80.1680 main 2394 2358 P________PP___ SH141970 -16.7225 80.1701 -1 -16.7225 80.1701 TC 25 -16.7351 80.1638 1 7 236
1970040S16083 1970 13 SI MM JANE 1970-02-10 00:00:00 TS -16.9000 79.9000 main 2358 2334 O________OO___ jtwc_sh SH141970 -16.9000 79.9000 -1 -16.9000 79.9000 TC 25 -16.9000 79.9000 1 5 240
1970040S16083 1970 13 SI MM JANE 1970-02-10 03:00:00 TS -16.9779 79.7216 main 2334 2324 P________PP___ SH141970 -16.9724 79.7199 -1 -16.9724 79.7199 TC 25 -16.9887 79.7252 1 3 248
1970040S16083 1970 13 SI MM JANE 1970-02-10 06:00:00 TS -17.0124 79.6015 main 2324 2314 O________OP___ jtwc_sh SH141970 -17.0000 79.6000 -1 -17.0000 79.6000 TC 25 -17.0371 79.6045 1 2 251
1970040S16083 1970 13 SI MM JANE 1970-02-10 09:00:00 TS -17.0506 79.5022 main 2311 2301 P________PP___ SH141970 -17.0425 79.5000 -1 -17.0425 79.5000 TC 25 -17.0669 79.5065 1 2 246
1970040S16083 1970 13 SI MM JANE 1970-02-10 12:00:00 TS -17.1000 79.4000 main 2301 2288 O________OO___ jtwc_sh SH141970 -17.1000 79.4000 -1 -17.1000 79.4000 TC 25 -17.1000 79.4000 1 3 237
1970040S16083 1970 13 SI MM JANE 1970-02-10 15:00:00 TS -17.1959 79.2674 main 2288 2265 P________PP___ SH141970 -17.2000 79.2650 -1 -17.2000 79.2650 TC 25 -17.1879 79.2720 1 3 235
1970040S16083 1970 13 SI MM JANE 1970-02-10 18:00:00 TS -17.2932 79.1084 main 2265 2242 O________OP___ jtwc_sh SH141970 -17.3000 79.1000 -1 -17.3000 79.1000 TC 25 -17.2796 79.1252 1 4 243
1970040S16083 1970 13 SI MM JANE 1970-02-10 21:00:00 TS -17.3621 78.9336 main 2242 2221 P________PP___ SH141970 -17.3649 78.9300 -1 -17.3649 78.9300 TC 30 -17.3565 78.9408 1 4 255
1970040S16083 1970 13 SI MM JANE 1970-02-11 00:00:00 TS -17.4000 78.7000 reunion main 2221 2182 O________OO___ jtwc_sh SH141970 -17.4000 78.7000 -1 -17.4000 78.7000 TC 35 -17.4000 78.7000 2 6 274
1970040S16083 1970 13 SI MM JANE 1970-02-11 03:00:00 TS -17.3238 78.3232 main 2182 2130 P________PP___ SH141970 -17.4225 78.3801 -1 -17.4225 78.3801 TC 35 -17.3984 78.3784 2 9 277
1970040S16083 1970 13 SI MM JANE 1970-02-11 06:00:00 TS -17.2901 77.7756 reunion main 2130 2091 O____O___OP_O_ jtwc_sh SH141970 -17.4000 78.0000 -1 -17.0000 77.1000 3 9.90000 -17.4000 78.0000 TC 35 -17.3603 78.0024 2 -17.0000 77.1000 TC 45 10 276
1970040S16083 1970 13 SI MM JANE 1970-02-11 09:00:00 TS -17.2171 77.3324 main 2081 2052 P____P___PP_P_ SH141970 -17.3150 77.6074 -1 -17.0000 76.9225 3 -17.3150 77.6074 TC 35 -17.2921 77.6003 2 -17.0000 76.9225 TC 47 8 283
1970040S16083 1970 13 SI MM JANE 1970-02-11 12:00:00 TS -17.1200 77.0000 reunion main 2052 2021 O____O___OO_O_ jtwc_sh SH141970 -17.2000 77.2000 -1 -17.0000 76.7000 99 9.90000 -17.2000 77.2000 TC 35 -17.2000 77.2000 2 -17.0000 76.7000 TC 50 7 283
1970040S16083 1970 13 SI MM JANE 1970-02-11 15:00:00 TS -17.0632 76.6399 main 2011 1982 P____P___PP_P_ SH141970 -17.1075 76.7851 -1 -17.0000 76.4075 99 -17.1075 76.7851 TC 35 -17.1007 76.8142 2 -17.0000 76.4075 TC 52 7 280
1970040S16083 1970 13 SI MM JANE 1970-02-11 18:00:00 TS -16.9960 76.2880 reunion main 1982 1954 O____O___OP_O_ jtwc_sh SH141970 -17.0000 76.4000 -1 -17.0000 76.1000 99 9.90000 -17.0000 76.4000 TC 35 -16.9801 76.4398 2 -17.0000 76.1000 TC 55 7 283
1970040S16083 1970 13 SI MM JANE 1970-02-11 21:00:00 TS -16.9179 75.9781 main 1954 1926 P____P___PP_P_ SH141970 -16.8575 76.0625 -1 -17.0150 75.8351 99 -16.8575 76.0625 TC 35 -16.8445 76.0955 2 -17.0150 75.8351 TC 57 6 288
1970040S16083 1970 13 SI MM JANE 1970-02-12 00:00:00 TS -16.8200 75.7200 reunion main 1926 1908 O____O___OO_O_ jtwc_sh SH141970 -16.7000 75.8000 -1 -17.0000 75.6000 99 9.90000 -16.7000 75.8000 TC 35 -16.7000 75.8000 2 -17.0000 75.6000 TC 60 5 295
1970040S16083 1970 13 SI MM JANE 1970-02-12 03:00:00 TS -16.7107 75.5230 main 1908 1898 P____P___PP_P_ SH141970 -16.5499 75.6351 -1 -16.9525 75.3851 99 -16.5499 75.6351 TC 35 -16.5487 75.5749 2 -16.9525 75.3851 TC 62 4 307
1970040S16083 1970 13 SI MM JANE 1970-02-12 06:00:00 TS -16.5584 75.3595 reunion main 1901 1886 O____O___OP_O_ jtwc_sh SH141970 -16.4000 75.5000 -1 -16.8000 75.2000 4 9.90000 -16.4000 75.5000 TC 35 -16.3921 75.3977 2 -16.8000 75.2000 TC 65 5 320
1970040S16083 1970 13 SI MM JANE 1970-02-12 09:00:00 TS -16.3249 75.1893 main 1889 1875 P____P___PP_P_ SH141970 -16.2425 75.3075 -1 -16.4500 75.0424 4 -16.2425 75.3075 TC 35 -16.2394 75.2467 2 -16.4500 75.0424 TC 67 6 325
1970040S16083 1970 13 SI MM JANE 1970-02-12 12:00:00 TS -16.1000 75.0200 reunion main 1875 1868 O____O___OO_O_ jtwc_sh SH141970 -16.1000 75.1000 -1 -16.1000 74.9000 99 9.90000 -16.1000 75.1000 TC 35 -16.1000 75.1000 2 -16.1000 74.9000 TC 70 5 315
1970040S16083 1970 13 SI MM JANE 1970-02-12 15:00:00 TS -15.9906 74.8413 main 1858 1851 P____P___PP_P_ SH141970 -15.9925 74.8925 -1 -15.9850 74.7502 99 -15.9925 74.8925 TC 35 -15.9978 74.9211 2 -15.9850 74.7502 TC 72 4 300
1970040S16083 1970 13 SI MM JANE 1970-02-12 18:00:00 TS -15.9015 74.6685 reunion main 1851 1835 O____O___OP_O_ jtwc_sh SH141970 -15.9000 74.7000 -1 -15.9000 74.6000 99 9.90000 -15.9000 74.7000 TC 35 -15.9075 74.7427 2 -15.9000 74.6000 TC 75 4 307
1970040S16083 1970 13 SI MM JANE 1970-02-12 21:00:00 TS -15.7517 74.5076 main 1835 1828 P____P___PP_P_ SH141970 -15.8075 74.5425 -1 -15.6650 74.4424 99 -15.8075 74.5425 TC 35 -15.8134 74.5680 2 -15.6650 74.4424 TC 75 4 317
1970040S16083 1970 13 SI MM JANE 1970-02-13 00:00:00 TS -15.5800 74.3600 reunion main 1832 1819 O____O___OO_O_ jtwc_sh SH141970 -15.7000 74.4000 -1 -15.4000 74.3000 99 9.90000 -15.7000 74.4000 TC 35 -15.7000 74.4000 2 -15.4000 74.3000 TC 75 4 322
1970040S16083 1970 13 SI MM JANE 1970-02-13 03:00:00 TS -15.4039 74.2226 main 1819 1813 P____P___PP_P_ SH141970 -15.5650 74.2500 -1 -15.1775 74.1850 99 -15.5650 74.2500 TC 35 -15.5343 74.2428 2 -15.1775 74.1850 TC 77 4 324
1970040S16083 1970 13 SI MM JANE 1970-02-13 06:00:00 TS -15.2300 74.0985 reunion main 1817 1807 O____O___OP_O_ jtwc_sh SH141970 -15.4000 74.1000 -1 -15.0000 74.1000 4 9.90000 -15.4000 74.1000 TC 35 -15.3499 74.0924 2 -15.0000 74.1000 TC 80 4 327
1970040S16083 1970 13 SI MM JANE 1970-02-13 09:00:00 TS -15.0671 73.9892 main 1811 1805 P____P___PP_P_ SH141970 -15.1925 73.9500 -1 -14.8925 74.0500 4 -15.1925 73.9500 TC 35 -15.1656 73.9459 2 -14.8925 74.0500 TC 82 4 326
1970040S16083 1970 13 SI MM JANE 1970-02-13 12:00:00 TS -14.9200 73.8800 reunion main 1809 1799 O____O___OO_O_ jtwc_sh SH141970 -15.0000 73.8000 -1 -14.8000 74.0000 99 9.90000 -15.0000 73.8000 TC 35 -15.0000 73.8000 2 -14.8000 74.0000 TC 85 3 321
1970040S16083 1970 13 SI MM JANE 1970-02-13 15:00:00 TS -14.8003 73.7615 main 1803 1787 P____P___PP_P_ SH141970 -14.8850 73.6500 -1 -14.6725 73.9226 99 -14.8850 73.6500 TC 35 -14.8865 73.6624 2 -14.6725 73.9226 TC 87 3 314
1970040S16083 1970 13 SI MM JANE 1970-02-13 18:00:00 TS -14.6785 73.6246 reunion main 1787 1782 O____O___OP_O_ jtwc_sh SH141970 -14.8000 73.5000 -1 -14.5000 73.8000 99 9.90000 -14.8000 73.5000 TC 35 -14.7924 73.5228 2 -14.5000 73.8000 TC 90 4 314
1970040S16083 1970 13 SI MM JANE 1970-02-13 21:00:00 TS -14.5174 73.4603 main 1786 1771 P____P___PP_P_ SH141970 -14.7075 73.3575 -1 -14.2350 73.6074 99 -14.7075 73.3575 TC 35 -14.7021 73.3718 2 -14.2350 73.6074 TC 92 5 314
1970040S16083 1970 13 SI MM JANE 1970-02-14 00:00:00 TS -14.3600 73.2800 reunion main 1771 1756 O____O___OO_O_ jtwc_sh SH141970 -14.6000 73.2000 -1 -14.0000 73.4000 99 9.90000 -14.6000 73.2000 TC 35 -14.6000 73.2000 2 -14.0000 73.4000 TC 95 4 309
1970040S16083 1970 13 SI MM JANE 1970-02-14 03:00:00 TS -14.2390 73.1108 main 1761 1746 P____P___PP_P_ SH141970 -14.4575 73.0150 -1 -13.9199 73.2576 99 -14.4575 73.0150 TC 35 -14.4399 73.0086 2 -13.9199 73.2576 TC 97 4 303
1970040S16083 1970 13 SI MM JANE 1970-02-14 06:00:00 TS -14.1340 72.9189 reunion main 1746 1732 O____O___OP_O_ jtwc_sh SH141970 -14.3000 72.8000 -1 -13.9000 73.1000 4 9.90000 -14.3000 72.8000 TC 35 -14.2699 72.7947 2 -13.9000 73.1000 TC 100 5 299
1970040S16083 1970 13 SI MM JANE 1970-02-14 09:00:00 TS -14.0140 72.6837 main 1732 1708 P____P___PP_P_ SH141970 -14.1350 72.5650 -1 -13.8425 72.8650 4 -14.1350 72.5650 TC 35 -14.1149 72.5585 2 -13.8425 72.8650 TC 102 5 294
1970040S16083 1970 13 SI MM JANE 1970-02-14 12:00:00 TS -13.9200 72.4200 reunion main 1708 1688 O____O___OO_O_ jtwc_sh SH141970 -14.0000 72.3000 -1 -13.8000 72.6000 99 9.90000 -14.0000 72.3000 TC 35 -14.0000 72.3000 2 -13.8000 72.6000 TC 105 5 285
1970040S16083 1970 13 SI MM JANE 1970-02-14 15:00:00 TS -13.8680 72.1416 main 1679 1659 P____P___PP_P_ SH141970 -13.9200 72.0075 -1 -13.7775 72.3500 99 -13.9200 72.0075 TC 35 -13.9449 71.9933 2 -13.7775 72.3500 TC 107 6 276
1970040S16083 1970 13 SI MM JANE 1970-02-14 18:00:00 TS -13.8666 71.8540 reunion main 1659 1631 O____O___OP_O_ jtwc_sh SH141970 -13.9000 71.7000 -1 -13.8000 72.1000 99 9.90000 -13.9000 71.7000 TC 35 -13.9328 71.6702 2 -13.8000 72.1000 TC 110 6 265
1970040S16083 1970 13 SI MM JANE 1970-02-14 21:00:00 TS -13.9189 71.5634 main 1631 1597 P____P___PP_P_ SH141970 -13.9275 71.3775 -1 -13.8925 71.8501 99 -13.9275 71.3775 TC 35 -13.9543 71.3620 2 -13.8925 71.8501 TC 110 6 256
1970040S16083 1970 13 SI MM JANE 1970-02-15 00:00:00 TS -14.0000 71.3000 reunion main 1597 1573 O____O___OO_O_ jtwc_sh SH141970 -14.0000 71.1000 -1 -14.0000 71.6000 99 9.90000 -14.0000 71.1000 TC 35 -14.0000 71.1000 2 -14.0000 71.6000 TC 110 5 251
1970040S16083 1970 13 SI MM JANE 1970-02-15 03:00:00 TS -14.0744 71.0848 main 1573 1554 P____P___PP_P_ SH141970 -14.0999 70.9200 -1 -14.0575 71.3275 99 -14.0999 70.9200 TC 35 -14.0573 70.9288 2 -14.0575 71.3275 TC 110 4 248
1970040S16083 1970 13 SI MM JANE 1970-02-15 06:00:00 TS -14.1469 70.9210 reunion main 1554 1539 O____O___OP_O_ jtwc_sh SH141970 -14.2000 70.8000 -1 -14.1000 71.1000 4 9.90000 -14.2000 70.8000 TC 35 -14.1347 70.8050 2 -14.1000 71.1000 TC 110 3 243
1970040S16083 1970 13 SI MM JANE 1970-02-15 09:00:00 TS -14.2069 70.8147 main 1539 1524 P____P___PP_P_ SH141970 -14.2575 70.7000 -1 -14.1499 70.9850 4 -14.2575 70.7000 TC 35 -14.2198 70.7038 2 -14.1499 70.9850 TC 112 2 240
1970040S16083 1970 13 SI MM JANE 1970-02-15 12:00:00 TS -14.2600 70.7200 reunion main 1524 1515 O____O___OO_O_ jtwc_sh SH141970 -14.3000 70.6000 -1 -14.2000 70.9000 99 9.90000 -14.3000 70.6000 TC 35 -14.3000 70.6000 2 -14.2000 70.9000 TC 115 3 245
1970040S16083 1970 13 SI MM JANE 1970-02-15 15:00:00 TS -14.3114 70.5804 main 1515 1490 P____P___PP_P_ SH141970 -14.3500 70.4575 -1 -14.2500 70.7650 99 -14.3500 70.4575 TC 35 -14.3572 70.4572 2 -14.2500 70.7650 TC 115 3 251
1970040S16083 1970 13 SI MM JANE 1970-02-15 18:00:00 TS -14.3615 70.4215 reunion main 1490 1481 O____O___OP_O_ jtwc_sh SH141970 -14.4000 70.3000 -1 -14.3000 70.6000 99 9.90000 -14.4000 70.3000 TC 35 -14.4075 70.3075 2 -14.3000 70.6000 TC 115 3 254
1970040S16083 1970 13 SI MM JANE 1970-02-15 21:00:00 TS -14.4048 70.2448 main 1471 1456 P____P___PP_P_ SH141970 -14.4500 70.1500 -1 -14.3350 70.3850 99 -14.4500 70.1500 TC 35 -14.4541 70.1540 2 -14.3350 70.3850 TC 117 3 253
1970040S16083 1970 13 SI MM JANE 1970-02-16 00:00:00 TS -14.4600 70.0800 reunion main 1456 1447 O____O___OO_O_ jtwc_sh SH141970 -14.5000 70.0000 -1 -14.4000 70.2000 99 9.90000 -14.5000 70.0000 TC 35 -14.5000 70.0000 2 -14.4000 70.2000 TC 120 3 242
1970040S16083 1970 13 SI MM JANE 1970-02-16 03:00:00 TS -14.5500 69.9662 main 1447 1432 P____P___PP_P_ SH141970 -14.5500 69.8500 -1 -14.5500 70.1425 99 -14.5500 69.8500 TC 35 -14.5500 69.8459 2 -14.5500 70.1425 TC 120 3 230
1970040S16083 1970 13 SI MM JANE 1970-02-16 06:00:00 TS -14.6400 69.8585 reunion main 1432 1408 O____O___OP_O_ jtwc_sh SH141970 -14.6000 69.7000 -1 -14.7000 70.1000 4 9.90000 -14.6000 69.7000 TC 35 -14.6000 69.6925 2 -14.7000 70.1000 TC 120 3 239
1970040S16083 1970 13 SI MM JANE 1970-02-16 09:00:00 TS -14.6960 69.7176 main 1408 1398 P____P___PP_P_ SH141970 -14.6500 69.5425 -1 -14.7650 69.9800 4 -14.6500 69.5425 TC 35 -14.6500 69.5428 2 -14.7650 69.9800 TC 120 3 251
1970040S16083 1970 13 SI MM JANE 1970-02-16 12:00:00 TS -14.7400 69.5600 reunion main 1398 1374 O____O___OO_O_ jtwc_sh SH141970 -14.7000 69.4000 -1 -14.8000 69.8000 99 9.90000 -14.7000 69.4000 TC 35 -14.7000 69.4000 2 -14.8000 69.8000 TC 120 3 253
1970040S16083 1970 13 SI MM JANE 1970-02-16 15:00:00 TS -14.7922 69.3992 main 1374 1355 P____P___PP_P_ SH141970 -14.7500 69.3000 -1 -14.8576 69.5500 99 -14.7500 69.3000 TC 35 -14.7457 69.2961 2 -14.8576 69.5500 TC 120 3 252
1970040S16083 1970 13 SI MM JANE 1970-02-16 18:00:00 TS -14.8384 69.2390 reunion main 1355 1340 O____O___OP_O_ jtwc_sh SH141970 -14.8000 69.2000 -1 -14.9000 69.3000 99 9.90000 -14.8000 69.2000 TC 35 -14.7922 69.1948 2 -14.9000 69.3000 TC 120 3 256
1970040S16083 1970 13 SI MM JANE 1970-02-16 21:00:00 TS -14.8685 69.0942 main 1340 1322 P____P___PP_P_ SH141970 -14.8500 69.0725 -1 -14.9000 69.1275 99 -14.8500 69.0725 TC 50 -14.8426 69.0711 2 -14.9000 69.1275 TC 122 3 258
1970040S16083 1970 13 SI MM JANE 1970-02-17 00:00:00 TS -14.9000 68.9400 reunion main 1322 1312 O____O___OO_O_ jtwc_sh SH141970 -14.9000 68.9000 -1 -14.9000 69.0000 99 9.90000 -14.9000 68.9000 TC 65 -14.9000 68.9000 4 -14.9000 69.0000 TC 125 3 256
1970040S16083 1970 13 SI MM JANE 1970-02-17 03:00:00 TS -14.9437 68.7838 main 1312 1288 P____P___PP_P_ SH141970 -14.9425 68.6800 -1 -14.9348 68.9524 99 -14.9425 68.6800 TC 65 -14.9638 68.6544 4 -14.9348 68.9524 TC 125 4 254
1970040S16083 1970 13 SI MM JANE 1970-02-17 06:00:00 TS -15.0070 68.5520 reunion main 1288 1245 O____O___OP_O_ jtwc_sh SH141970 -15.0000 68.4000 -1 -15.0000 68.8000 4 9.90000 -15.0000 68.4000 TC 65 -15.0351 68.3599 4 -15.0000 68.8000 TC 125 6 256
1970040S16083 1970 13 SI MM JANE 1970-02-17 09:00:00 TS -15.0939 68.1681 main 1245 1202 P____P___PP_P_ SH141970 -15.0925 68.0650 -1 -15.0853 68.3375 4 -15.0925 68.0650 TC 65 -15.1138 68.0356 4 -15.0853 68.3375 TC 125 8 256
1970040S16083 1970 13 SI MM JANE 1970-02-17 12:00:00 TS -15.2000 67.7400 reunion main 1192 1159 O____O___OO_O_ jtwc_sh SH141970 -15.2000 67.7000 -1 -15.2000 67.8000 99 9.90000 -15.2000 67.7000 TC 65 -15.2000 67.7000 4 -15.2000 67.8000 TC 125 8 254
1970040S16083 1970 13 SI MM JANE 1970-02-17 15:00:00 TS -15.3155 67.3798 main 1159 1125 P____P___PP_P_ SH141970 -15.3000 67.3425 -1 -15.3424 67.4200 99 -15.3000 67.3425 TC 65 -15.2928 67.3741 4 -15.3424 67.4200 TC 125 7 250
1970040S16083 1970 13 SI MM JANE 1970-02-17 18:00:00 TS -15.4385 67.0485 reunion main 1116 1086 O____O___OP_O_ jtwc_sh SH141970 -15.4000 67.0000 -1 -15.5000 67.1000 99 9.90000 -15.4000 67.0000 TC 65 -15.3925 67.0425 4 -15.5000 67.1000 TC 125 7 248
1970040S16083 1970 13 SI MM JANE 1970-02-17 21:00:00 TS -15.5621 66.7399 main 1077 1053 P____P___PP_P_ SH141970 -15.4999 66.6925 -1 -15.6574 66.8000 99 -15.4999 66.6925 TC 65 -15.4959 66.7147 4 -15.6574 66.8000 TC 122 6 248
1970040S16083 1970 13 SI MM JANE 1970-02-18 00:00:00 TS -15.6800 66.4400 reunion main 1043 1010 O____O___OO_O_ jtwc_sh SH141970 -15.6000 66.4000 -1 -15.8000 66.5000 99 9.90000 -15.6000 66.4000 TC 65 -15.6000 66.4000 4 -15.8000 66.5000 TC 120 6 249
1970040S16083 1970 13 SI MM JANE 1970-02-18 03:00:00 TS -15.7865 66.1237 main 1010 976 P____P___PP_P_ SH141970 -15.7000 66.0925 -1 -15.9225 66.1575 99 -15.7000 66.0925 TC 65 -15.6875 66.1185 4 -15.9225 66.1575 TC 117 6 252
1970040S16083 1970 13 SI MM JANE 1970-02-18 06:00:00 TS -15.8754 65.8099 reunion main 976 949 O____O___OP_O_ jtwc_sh SH141970 -15.8000 65.8000 -1 -16.0000 65.8000 4 9.90000 -15.8000 65.8000 TC 65 -15.7771 65.8496 4 -16.0000 65.8000 TC 115 6 256
1970040S16083 1970 13 SI MM JANE 1970-02-18 09:00:00 TS -15.9326 65.5101 main 949 915 P____P___PP_P_ SH141970 -15.8924 65.5424 -1 -16.0000 65.4424 4 -15.8924 65.5424 TC 65 -15.8782 65.5809 4 -16.0000 65.4424 TC 115 6 258
1970040S16083 1970 13 SI MM JANE 1970-02-18 12:00:00 TS -16.0000 65.2200 reunion main 915 891 O____O___OO_O_ jtwc_sh SH141970 -16.0000 65.3000 -1 -16.0000 65.1000 99 9.90000 -16.0000 65.3000 TC 65 -16.0000 65.3000 4 -16.0000 65.1000 TC 115 6 251
1970040S16083 1970 13 SI MM JANE 1970-02-18 15:00:00 TS -16.1155 64.9505 main 891 852 P____P___PP_P_ SH141970 -16.1349 65.0724 -1 -16.0775 64.7850 99 -16.1349 65.0724 TC 65 -16.1527 65.0378 4 -16.0775 64.7850 TC 112 6 243
1970040S16083 1970 13 SI MM JANE 1970-02-18 18:00:00 TS -16.2653 64.6709 reunion main 852 819 O____O___OP_O_ jtwc_sh SH141970 -16.3000 64.8000 -1 -16.2000 64.5000 99 9.90000 -16.3000 64.8000 TC 65 -16.3263 64.7544 4 -16.2000 64.5000 TC 110 7 240
1970040S16083 1970 13 SI MM JANE 1970-02-18 21:00:00 TS -16.4393 64.3618 main 819 771 P____P___PP_P_ SH141970 -16.4998 64.4525 -1 -16.3424 64.2425 99 -16.4998 64.4525 TC 65 -16.5118 64.4189 4 -16.3424 64.2425 TC 107 7 241
1970040S16083 1970 13 SI MM JANE 1970-02-19 00:00:00 TS -16.6200 64.0000 reunion main 771 723 O____O___OO_O_ jtwc_sh SH141970 -16.7000 64.0000 -1 -16.5000 64.0000 99 9.90000 -16.7000 64.0000 TC 65 -16.7000 64.0000 4 -16.5000 64.0000 TC 105 8 246
1970040S16083 1970 13 SI MM JANE 1970-02-19 03:00:00 TS -16.7789 63.5724 main 723 672 P____P___PP_P_ SH141970 -16.8500 63.4373 -1 -16.6574 63.7650 99 -16.8500 63.4373 TC 65 -16.8796 63.4573 4 -16.6574 63.7650 TC 105 9 250
1970040S16083 1970 13 SI MM JANE 1970-02-19 06:00:00 TS -16.9317 63.0865 reunion main 672 615 O____O___OP_O_ jtwc_sh SH141970 -17.0000 62.8000 -1 -16.8000 63.5000 4 9.90000 -17.0000 62.8000 TC 65 -17.0582 62.8326 4 -16.8000 63.5000 TC 105 10 252
1970040S16083 1970 13 SI MM JANE 1970-02-19 09:00:00 TS -17.0955 62.5624 main 615 557 P____P___PP_P_ SH141970 -17.1999 62.1501 -1 -16.9225 63.1725 4 -17.1999 62.1501 TC 65 -17.2326 62.1666 4 -16.9225 63.1725 TC 105 11 253
1970040S16083 1970 13 SI MM JANE 1970-02-19 12:00:00 TS -17.2400 62.0200 reunion main 557 508 O____O___OO_O_ jtwc_sh SH141970 -17.4000 61.5000 -1 -17.0000 62.8000 99 9.90000 -17.4000 61.5000 TC 65 -17.4000 61.5000 4 -17.0000 62.8000 TC 105 10 257
1970040S16083 1970 13 SI MM JANE 1970-02-19 15:00:00 TS -17.3366 61.5006 main 508 460 P____P___PP_P_ SH141970 -17.5572 60.8923 -1 -16.9999 62.4148 99 -17.5572 60.8923 TC 65 -17.5688 60.8887 4 -16.9999 62.4148 TC 105 10 259
1970040S16083 1970 13 SI MM JANE 1970-02-19 18:00:00 TS -17.4259 60.9770 reunion main 460 414 O____O___OP_O_ jtwc_sh SH141970 -17.7000 60.3000 -1 -17.0000 62.0000 99 9.90000 -17.7000 60.3000 TC 65 -17.7293 60.2849 4 -17.0000 62.0000 TC 105 10 258
1970040S16083 1970 13 SI MM JANE 1970-02-19 21:00:00 TS -17.5429 60.4467 main 406 354 P____P___PP_P_ SH141970 -17.8573 59.7000 -1 -17.0623 61.5723 99 -17.8573 59.7000 TC 65 -17.8751 59.6887 4 -17.0623 61.5723 TC 102 11 256
1970040S16083 1970 13 SI MM JANE 1970-02-20 00:00:00 TS -17.6800 59.9000 reunion main 354 313 O____O___OO_O_ jtwc_sh SH141970 -18.0000 59.1000 -1 -17.2000 61.1000 99 9.90000 -18.0000 59.1000 TC 65 -18.0000 59.1000 4 -17.2000 61.1000 TC 100 11 254
1970040S16083 1970 13 SI MM JANE 1970-02-20 03:00:00 TS -17.8414 59.3255 main 307 261 P____P___PP_P_ SH141970 -18.1149 58.4924 -1 -17.4424 60.5727 99 -18.1149 58.4924 TC 65 -18.0923 58.4970 4 -17.4424 60.5727 TC 100 11 254
1970040S16083 1970 13 SI MM JANE 1970-02-20 06:00:00 TS -17.9930 58.7409 reunion main 257 229 O____O___OP_O_ jtwc_sh SH141970 -18.2000 57.9000 -1 -17.7000 60.0000 4 9.90000 -18.2000 57.9000 TC 65 -18.1648 57.9044 4 -17.7000 60.0000 TC 100 11 257
1970040S16083 1970 13 SI MM JANE 1970-02-20 09:00:00 TS -18.1007 58.1788 main 229 212 P____P___PP_P_ SH141970 -18.2499 57.3273 -1 -17.8869 59.4524 4 -18.2499 57.3273 TC 65 -18.2299 57.3346 4 -17.8869 59.4524 TC 100 11 260
1970040S16083 1970 13 SI MM JANE 1970-02-20 12:00:00 TS -18.1800 57.6000 reunion main 212 212 O____O___OO_O_ jtwc_sh SH141970 -18.3000 56.8000 -1 -18.0000 58.8000 99 9.90000 -18.3000 56.8000 TC 65 -18.3000 56.8000 4 -18.0000 58.8000 TC 100 12 263
1970040S16083 1970 13 SI MM JANE 1970-02-20 15:00:00 TS -18.2423 56.9623 main 218 210 P____P___PP_P_ SH141970 -18.3923 56.3350 -1 -18.0157 57.8996 99 -18.3923 56.3350 TC 65 -18.3956 56.3423 4 -18.0157 57.8996 TC 100 12 264
1970040S16083 1970 13 SI MM JANE 1970-02-20 18:00:00 TS -18.2996 56.3429 reunion main 237 237 O____O___OP_O_ jtwc_sh SH141970 -18.5000 55.9000 -1 -18.0000 57.0000 99 9.90000 -18.5000 55.9000 TC 65 -18.4982 55.9147 4 -18.0000 57.0000 TC 100 11 264
1970040S16083 1970 13 SI MM JANE 1970-02-20 21:00:00 TS -18.3618 55.8447 main 260 260 P____P___PP_P_ SH141970 -18.6072 55.4725 -1 -17.9964 56.3994 99 -18.6072 55.4725 TC 65 -18.6018 55.4798 4 -17.9964 56.3994 TC 100 10 261
1970040S16083 1970 13 SI MM JANE 1970-02-21 00:00:00 TS -18.4600 55.3200 reunion main 279 271 O____O___OO_O_ jtwc_sh SH141970 -18.7000 55.0000 -1 -18.1000 55.8000 99 9.90000 -18.7000 55.0000 TC 65 -18.7000 55.0000 4 -18.1000 55.8000 TC 100 12 257
1970040S16083 1970 13 SI MM JANE 1970-02-21 03:00:00 TS -18.6324 54.5954 main 278 270 P____P___PP_P_ SH141970 -18.7499 54.4298 -1 -18.4436 54.8563 99 -18.7499 54.4298 TC 65 -18.7746 54.4047 4 -18.4436 54.8563 TC 100 14 256
1970040S16083 1970 13 SI MM JANE 1970-02-21 06:00:00 TS -18.8087 53.8729 reunion main 286 286 O____O___OP_O_ jtwc_sh SH141970 -18.8000 53.8000 -1 -18.8000 54.0000 4 9.90000 -18.8000 53.8000 TC 65 -18.8433 53.7646 4 -18.8000 54.0000 TC 100 12 257
1970040S16083 1970 13 SI MM JANE 1970-02-21 09:00:00 TS -18.9177 53.3212 main 314 314 P____P___PP_P_ SH141970 -18.8925 53.1425 -1 -18.9442 53.6019 4 -18.8925 53.1425 TC 65 -18.9152 53.1171 4 -18.9442 53.6019 TC 97 10 259
1970040S16083 1970 13 SI MM JANE 1970-02-21 12:00:00 TS -19.0000 52.8600 reunion main 335 331 O____O___OO_O_ jtwc_sh SH141970 -19.0000 52.5000 -1 -19.0000 53.4000 99 9.90000 -19.0000 52.5000 TC 65 -19.0000 52.5000 4 -19.0000 53.4000 TC 95 9 259
1970040S16083 1970 13 SI MM JANE 1970-02-21 15:00:00 TS -19.0836 52.4154 main 331 295 P____P___PP_P_ SH141970 -19.0923 51.9199 -1 -19.0573 53.1649 99 -19.0923 51.9199 TC 65 -19.1186 51.9076 4 -19.0573 53.1649 TC 92 8 258
1970040S16083 1970 13 SI MM JANE 1970-02-21 18:00:00 TS -19.1700 51.9916 reunion main 295 257 O____O___OP_O_ jtwc_sh SH141970 -19.2000 51.4000 -1 -19.1000 52.9000 99 9.90000 -19.2000 51.4000 TC 65 -19.2500 51.3581 4 -19.1000 52.9000 TC 90 9 258
1970040S16083 1970 13 SI MM JANE 1970-02-21 21:00:00 TS -19.2674 51.5289 main 250 220 P____P___PP_P_ SH141970 -19.3575 50.8902 -1 -19.1202 52.4924 99 -19.3575 50.8902 TC 65 -19.3814 50.8795 4 -19.1202 52.4924 TC 90 8 255
1970040S16083 1970 13 SI MM JANE 1970-02-22 00:00:00 TS -19.3800 51.1400 reunion main 214 197 O____O___OO_O_ jtwc_sh SH141970 -19.5000 50.5000 -1 -19.2000 52.1000 99 9.90000 -19.5000 50.5000 TC 65 -19.5000 50.5000 4 -19.2000 52.1000 TC 90 6 246
1970040S16083 1970 13 SI MM JANE 1970-02-22 03:00:00 TS -19.5188 50.9396 main 197 190 P____P___PP_P_ SH141970 -19.5573 50.3048 -1 -19.4497 51.9075 99 -19.5573 50.3048 TC 65 -19.5802 50.2732 4 -19.4497 51.9075 TC 87 4 231
1970040S16083 1970 13 SI MM JANE 1970-02-22 06:00:00 TS -19.6497 50.7878 reunion main 190 175 O____O___OP_O_ jtwc_sh SH141970 -19.6000 50.2000 -1 -19.7000 51.7000 4 9.90000 -19.6000 50.2000 TC 65 -19.6487 50.1392 4 -19.7000 51.7000 TC 85 4 239
1970040S16083 1970 13 SI MM JANE 1970-02-22 09:00:00 TS -19.7325 50.5571 main 175 151 P____P___PP_P_ SH141970 -19.6924 50.0725 -1 -19.7800 51.3023 4 -19.6924 50.0725 TC 65 -19.7179 50.0357 4 -19.7800 51.3023 TC 82 5 253
1970040S16083 1970 13 SI MM JANE 1970-02-22 12:00:00 TS -19.8000 50.2600 reunion main 151 115 O____O___OO_O_ jtwc_sh SH141970 -19.8000 49.9000 -1 -19.8000 50.8000 99 9.90000 -19.8000 49.9000 TC 65 -19.8000 49.9000 4 -19.8000 50.8000 TC 80 7 258
1970040S16083 1970 13 SI MM JANE 1970-02-22 15:00:00 TS -19.8746 49.8746 main 115 73 P____P___PP_P_ SH141970 -19.8925 49.6225 -1 -19.8426 50.2424 99 -19.8925 49.6225 TC 65 -19.9026 49.6431 4 -19.8426 50.2424 TC 77 8 258
1970040S16083 1970 13 SI MM JANE 1970-02-22 18:00:00 TS -19.9640 49.4690 reunion main 73 33 O____O___OP_O_ jtwc_sh SH141970 -20.0000 49.3000 -1 -19.9000 49.7000 99 9.90000 -20.0000 49.3000 TC 65 -20.0202 49.3449 4 -19.9000 49.7000 TC 75 7 255
1970040S16083 1970 13 SI MM JANE 1970-02-22 21:00:00 TS -20.0664 49.1217 main 33 10 P____P___PP_P_ SH141970 -20.1424 49.0000 -1 -19.9471 49.2920 99 -20.1424 49.0000 TC 65 -20.1526 49.0243 4 -19.9471 49.2920 TC 72 7 248
1970040S16083 1970 13 SI MM JANE 1970-02-23 00:00:00 TS -20.2200 48.7800 reunion main 10 0 O____O___OO_O_ jtwc_sh SH141970 -20.3000 48.7000 -1 -20.1000 48.9000 99 9.90000 -20.3000 48.7000 TC 65 -20.3000 48.7000 4 -20.1000 48.9000 TC 70 8 241
1970040S16083 1970 13 SI MM JANE 1970-02-23 03:00:00 TS -20.4578 48.3809 main 0 0 P____P___PP_P_ SH141970 -20.4424 48.3999 -1 -20.4779 48.3484 99 -20.4424 48.3999 TC 65 -20.4482 48.4078 4 -20.4779 48.3484 TC 62 9 235
1970040S16083 1970 13 SI MM JANE 1970-02-23 06:00:00 TS -20.7224 48.0229 reunion main 0 0 O____O___OP_O_ jtwc_sh SH141970 -20.6000 48.1000 -1 -20.9000 47.9000 3 9.90000 -20.6000 48.1000 TC 65 -20.6121 48.1145 4 -20.9000 47.9000 TC 55 7 228
1970040S16083 1970 13 SI MM JANE 1970-02-23 09:00:00 TS -20.9449 47.7956 main 0 0 P____P___PP_P_ SH141970 -20.7924 47.8074 -1 -21.1722 47.7745 3 -20.7924 47.8074 TC 65 -20.7950 47.8139 4 -21.1722 47.7745 TC 50 6 221
1970040S16083 1970 13 SI MM JANE 1970-02-23 12:00:00 TS -21.1600 47.6200 reunion main 0 0 O____O___OO_O_ jtwc_sh SH141970 -21.0000 47.5000 -1 -21.4000 47.8000 99 9.90000 -21.0000 47.5000 TC 65 -21.0000 47.5000 4 -21.4000 47.8000 TC 45 6 220
1970040S16083 1970 13 SI MM JANE 1970-02-23 15:00:00 TS -21.3817 47.4087 main 0 0 P____P___PP_P_ SH141970 -21.1850 47.1573 -1 -21.6650 47.7925 99 -21.1850 47.1573 TC 50 -21.2083 47.1440 4 -21.6650 47.7925 TC 42 6 228
1970040S16083 1970 13 SI MM JANE 1970-02-23 18:00:00 TS -21.5756 47.1283 reunion main 0 0 O____O___OP_O_ jtwc_sh SH141970 -21.4000 46.8000 -1 -21.9000 47.8000 99 9.90000 -21.4000 46.8000 TC 35 -21.4403 46.7774 4 -21.9000 47.8000 TC 40 7 237
1970040S16083 1970 13 SI MM JANE 1970-02-23 21:00:00 TS -21.7749 46.7693 main 0 0 P____P___PP_P_ SH141970 -21.6775 46.4276 -1 -22.0599 47.8036 99 -21.6775 46.4276 TC 35 -21.7021 46.4221 4 -22.0599 47.8036 TC 40 9 238
1970040S16083 1970 13 SI MM JANE 1970-02-24 00:00:00 TS -22.0286 46.3429 reunion main 0 0 O____O___OO_O_ jtwc_sh SH141970 -22.0000 46.1000 -1 -22.2000 47.8000 99 9.90000 -22.0000 46.1000 TC 35 -22.0000 46.1000 2 -22.2000 47.8000 TC 40 10 236
1970040S16083 1970 13 SI MM JANE 1970-02-24 03:00:00 TS -22.3348 45.8693 main 0 0 P____P___PP_P_ SH141970 -22.3348 45.8847 -1 -22.4258 47.7435 99 -22.3348 45.8847 TC 35 -22.3346 45.8386 2 -22.4258 47.7435 TC 9 223
1970040S16083 1970 13 SI MM JANE 1970-02-24 06:00:00 TS -22.7015 45.6706 reunion main 0 0 O____P___OP_P_ jtwc_sh SH141970 -22.7000 45.7000 -1 -22.7075 47.6470 99 -22.7000 45.7000 TC 35 -22.7045 45.6118 2 -22.7075 47.6470 TC 9 208
1970040S16083 1970 13 SI MM JANE 1970-02-24 09:00:00 TS -23.0941 45.4347 main 0 0 P____P___PP_P_ SH141970 -23.0925 45.4500 -1 -23.0346 47.5203 99 -23.0925 45.4500 TC 35 -23.0972 45.4042 2 -23.0346 47.5203 TC 9 208
1970040S16083 1970 13 SI MM JANE 1970-02-24 12:00:00 TS -23.5000 45.2000 reunion main 0 0 O____P___OO_P_ jtwc_sh SH141970 -23.5000 45.2000 -1 -23.3968 47.3732 99 -23.5000 45.2000 TC 35 -23.5000 45.2000 2 -23.3968 47.3732 TC 9 208
1970040S16083 1970 13 SI MM JANE 1970-02-24 15:00:00 TS -23.9030 44.9569 main 0 0 P____P___PP_P_ SH141970 -23.8999 44.9997 -1 -23.7834 47.2159 99 -23.8999 44.9997 TC 35 -23.9091 44.8713 2 -23.7834 47.2159 TC 9 208
1970040S16083 1970 13 SI MM JANE 1970-02-24 18:00:00 TS -24.3074 44.7193 reunion main 0 0 O____P___OP_P_ jtwc_sh SH141970 -24.3000 44.8000 -1 -24.1840 47.0583 99 -24.3000 44.8000 TC 35 -24.3223 44.5580 2 -24.1840 47.0583 TC 9 210
1970040S16083 1970 13 SI MM JANE 1970-02-24 21:00:00 TS -24.7132 44.4356 main 0 0 P____P___PP_P_ SH141970 -24.7076 44.4831 -1 -24.5882 46.9110 99 -24.7076 44.4831 TC 35 -24.7243 44.3405 2 -24.5882 46.9110 TC 9 206
1970040S16083 1970 13 SI MM JANE 1970-02-25 00:00:00 TS -25.1000 44.3000 reunion main 0 0 O____P___OO_P_ jtwc_sh SH141970 -25.1000 44.3000 -1 -24.9856 46.7843 99 -25.1000 44.3000 TC 35 -25.1000 44.3000 2 -24.9856 46.7843 TC 8 0
1970040S16083 1970 13 SI MM JANE 1970-02-25 03:00:00 TS -25.4671 44.4520 main 22 22 P____P___PP_P_ SH141970 -25.4721 44.4223 -1 -25.3658 46.6891 99 -25.4721 44.4223 TC 35 -25.4572 44.5115 2 -25.3658 46.6891 TC 8 145
1970040S16083 1970 13 SI MM JANE 1970-02-25 06:00:00 TS -25.7942 44.8357 reunion main 39 34 O____P___OP_P_ jtwc_sh SH141970 -25.8000 44.8000 -1 -25.7184 46.6359 99 -25.8000 44.8000 TC 35 -25.7826 44.9072 2 -25.7184 46.6359 TC 12 123
1970040S16083 1970 13 SI MM JANE 1970-02-25 09:00:00 MX -26.0938 45.5337 main 55 55 P____P___PP_P_ SH141970 -26.0803 45.3473 -1 -26.0333 46.6359 99 -26.0803 45.3473 TC 35 -26.0666 45.4245 2 -26.0333 46.6359 TC 13 113
1970040S16083 1970 13 SI MM JANE 1970-02-25 12:00:00 MX -26.3000 46.1750 reunion main 104 104 O____O___OO_O_ jtwc_sh SH141970 -26.3000 46.0000 -1 -26.3000 46.7000 99 9.90000 -26.3000 46.0000 TC 35 -26.3000 46.0000 2 -26.3000 46.7000 EX 45 11 111
1970040S16083 1970 13 SI MM JANE 1970-02-25 15:00:00 MX -26.4916 46.6681 main 145 145 P____P___PP_P_ SH141970 -26.4723 46.6077 -1 -26.5411 46.8044 99 -26.4723 46.6077 TC 35 -26.4842 46.5609 2 -26.5411 46.8044 EX 45 9 112
1970040S16083 1970 13 SI MM JANE 1970-02-25 18:00:00 MX -26.6437 47.1117 reunion main 159 159 O____O___OP_O_ jtwc_sh SH141970 -26.6000 47.2000 -1 -26.7000 47.0000 99 9.90000 -26.6000 47.2000 TC 35 -26.6187 47.1582 2 -26.7000 47.0000 EX 45 9 105
1970040S16083 1970 13 SI MM JANE 1970-02-25 21:00:00 MX -26.7158 47.5994 main 185 185 P____P___PP_P_ SH141970 -26.7149 47.7801 -1 -26.7152 47.3428 99 -26.7149 47.7801 TC 35 -26.7186 47.7514 2 -26.7152 47.3428 EX 45 9 98
1970040S16083 1970 13 SI MM JANE 1970-02-26 00:00:00 TS -26.7600 48.0600 reunion main 219 219 O____O___OO_O_ jtwc_sh SH141970 -26.8000 48.3000 -1 -26.7000 47.7000 99 9.90000 -26.8000 48.3000 TC 35 -26.8000 48.3000 2 -26.7000 47.7000 TC 45 7 99
1970040S16083 1970 13 SI MM JANE 1970-02-26 03:00:00 TS -26.8336 48.3949 main 235 235 P____P___PP_P_ SH141970 -26.8497 48.7227 -1 -26.7921 47.8850 99 -26.8497 48.7227 TC 35 -26.8843 48.7591 2 -26.7921 47.8850 TC 42 6 105
1970040S16083 1970 13 SI MM JANE 1970-02-26 06:00:00 MX -26.9112 48.7137 reunion main 263 263 O____O___OP_O_ jtwc_sh SH141970 -26.9000 49.1000 -1 -26.9000 48.1000 3 9.90000 -26.9000 49.1000 TC 35 -26.9562 49.1683 2 -26.9000 48.1000 EX 40 7 103
1970040S16083 1970 13 SI MM JANE 1970-02-26 09:00:00 MX -26.9791 49.1168 main 298 298 P____P___PP_P_ SH141970 -26.9924 49.5075 -1 -26.9426 48.5127 3 -26.9924 49.5075 TC 35 -27.0251 49.5434 2 -26.9426 48.5127 EX 40 8 101
1970040S16083 1970 13 SI MM JANE 1970-02-26 12:00:00 MX -27.0600 49.5400 reunion main 334 334 O____O___OO_O_ jtwc_sh SH141970 -27.1000 49.9000 -1 -27.0000 49.0000 99 9.90000 -27.1000 49.9000 TC 35 -27.1000 49.9000 2 -27.0000 49.0000 EX 40 8 104
1970040S16083 1970 13 SI MM JANE 1970-02-26 15:00:00 MX -27.1670 49.9406 main 372 372 P____P___PP_P_ SH141970 -27.1999 50.2576 -1 -27.1274 49.4575 99 -27.1999 50.2576 TC 35 -27.1803 50.2728 2 -27.1274 49.4575 EX 40 7 109
1970040S16083 1970 13 SI MM JANE 1970-02-26 18:00:00 MX -27.2939 50.3261 reunion main 409 409 O____O___OP_O_ jtwc_sh SH141970 -27.3000 50.6000 -1 -27.3000 49.9000 99 9.90000 -27.3000 50.6000 TC 35 -27.2696 50.6305 2 -27.3000 49.9000 EX 40 7 111
1970040S16083 1970 13 SI MM JANE 1970-02-26 21:00:00 MX -27.4318 50.7096 main 447 447 P____P___PP_P_ SH141970 -27.3925 50.9576 -1 -27.5000 50.3299 99 -27.3925 50.9576 TC 35 -27.3741 50.9729 2 -27.5000 50.3299 EX 40 7 114
1970040S16083 1970 13 SI MM JANE 1970-02-27 00:00:00 TS -27.5800 51.0600 reunion main 492 492 O____O___OO_O_ jtwc_sh SH141970 -27.5000 51.3000 -1 -27.7000 50.7000 99 9.90000 -27.5000 51.3000 TC 35 -27.5000 51.3000 2 -27.7000 50.7000 TC 40 6 118
1970040S16083 1970 13 SI MM JANE 1970-02-27 03:00:00 TS -27.7326 51.3466 main 515 515 P____P___PP_P_ SH141970 -27.6349 51.6076 -1 -27.8722 50.9577 99 -27.6349 51.6076 TC 35 -27.6488 51.6025 2 -27.8722 50.9577 TC 40 6 122
1970040S16083 1970 13 SI MM JANE 1970-02-27 06:00:00 MX -27.8838 51.6186 reunion main 552 552 O____O___OP_O_ jtwc_sh SH141970 -27.8000 51.9000 -1 -28.0000 51.2000 3 9.90000 -27.8000 51.9000 TC 35 -27.8192 51.8930 2 -28.0000 51.2000 EX 40 6 119
1970040S16083 1970 13 SI MM JANE 1970-02-27 09:00:00 MX -28.0180 51.9315 main 583 583 P____P___PP_P_ SH141970 -27.9923 52.1851 -1 -28.0501 51.5502 3 -27.9923 52.1851 TC 35 -28.0051 52.1870 2 -28.0501 51.5502 EX 40 6 116
1970040S16083 1970 13 SI MM JANE 1970-02-27 12:00:00 MX -28.1600 52.2600 reunion main 628 628 O____O___OO_O_ jtwc_sh SH141970 -28.2000 52.5000 -1 -28.1000 51.9000 99 9.90000 -28.2000 52.5000 TC 35 -28.2000 52.5000 2 -28.1000 51.9000 EX 40 7 118
1970040S16083 1970 13 SI MM JANE 1970-02-27 15:00:00 MX -28.3304 52.5969 main 658 658 P____P___PP_P_ SH141970 -28.4001 52.8925 -1 -28.2274 52.1651 99 -28.4001 52.8925 TC 35 -28.3971 52.8695 2 -28.2274 52.1651 EX 40 7 121
1970040S16083 1970 13 SI MM JANE 1970-02-27 18:00:00 MX -28.5201 52.9314 reunion main 695 695 O____O___OP_O_ jtwc_sh SH141970 -28.6000 53.3000 -1 -28.4000 52.4000 99 9.90000 -28.6000 53.3000 TC 35 -28.6004 53.2572 2 -28.4000 52.4000 EX 40 7 124
1970040S16083 1970 13 SI MM JANE 1970-02-27 21:00:00 MX -28.7236 53.2603 main 740 740 P____P___PP_P_ SH141970 -28.7999 53.6651 -1 -28.6075 52.6649 99 -28.7999 53.6651 TC 35 -28.8034 53.6414 2 -28.6075 52.6649 EX 40 7 126
1970040S16083 1970 13 SI MM JANE 1970-02-28 00:00:00 MX -28.9200 53.5600 reunion main 776 776 O____O___OO_O_ jtwc_sh SH141970 -29.0000 54.0000 -1 -28.8000 52.9000 99 9.90000 -29.0000 54.0000 TC 35 -29.0000 54.0000 2 -28.8000 52.9000 EX 40 6 125
1970040S16083 1970 13 SI MM JANE 1970-02-28 03:00:00 MX -29.0549 53.7908 main 805 805 P____P___PP_P_ SH141970 -29.2074 54.3151 -1 -28.8471 53.0136 99 -29.2074 54.3151 TC 35 -29.1653 54.2967 2 -28.8471 53.0136 EX 40 5 126
1970040S16083 1970 13 SI MM JANE 1970-02-28 06:00:00 MX -29.2253 54.0333 reunion main 827 827 O____O___OP_O_ jtwc_sh SH141970 -29.4000 54.6000 -1 -29.0000 53.2000 5 9.90000 -29.4000 54.6000 TC 35 -29.3267 54.5665 2 -29.0000 53.2000 EX 40 7 133
1970040S16083 1970 13 SI MM JANE 1970-02-28 09:00:00 MX -29.5220 54.3673 main 878 878 P____P___PP_P_ SH141970 -29.5574 54.8577 -1 -29.4978 53.6465 5 -29.5574 54.8577 TC 35 -29.4997 54.8280 2 -29.4978 53.6465 EX 40 9 136
1970040S16083 1970 13 SI MM JANE 1970-02-28 12:00:00 MX -29.8600 54.7400 reunion main 927 927 O____O___OO_O_ jtwc_sh SH141970 -29.7000 55.1000 -1 -30.1000 54.2000 99 9.90000 -29.7000 55.1000 TC 35 -29.7000 55.1000 2 -30.1000 54.2000 EX 40 8 135
1970040S16083 1970 13 SI MM JANE 1970-02-28 15:00:00 MX -30.1173 55.0595 main 971 971 P____P___PP_P_ SH141970 -29.8123 55.3281 -1 -30.5572 54.6934 99 -29.8123 55.3281 TC 35 -29.8476 55.2546 2 -30.5572 54.6934 EX 40 8 133
1970040S16083 1970 13 SI MM JANE 1970-02-28 18:00:00 MX -30.4077 55.4091 reunion main 1005 1005 O____O___OP_O_ jtwc_sh SH141970 -30.0000 55.6000 -1 -31.0000 55.2000 99 9.90000 -30.0000 55.6000 TC 35 -30.0384 55.4457 2 -31.0000 55.2000 EX 40 9 137
1970040S16083 1970 13 SI MM JANE 1970-02-28 21:00:00 MX -30.7842 55.7902 main 1050 1050 P____P___PP_P_ SH141970 -30.3007 55.8607 -1 -31.4920 55.7207 99 -30.3007 55.8607 TC 35 -30.3353 55.7882 2 -31.4920 55.7207 EX 40 11 134
1970040S16083 1970 13 SI MM JANE 1970-03-01 00:00:00 MX -31.2000 56.3667 reunion main 1097 1097 O____O___OO_O_ jtwc_sh SH141970 -30.8000 56.4000 -1 -32.0000 56.3000 99 9.90000 -30.8000 56.4000 TC 35 -30.8000 56.4000 2 -32.0000 56.3000 EX 40 16 127
1970040S16083 1970 13 SI MM JANE 1970-03-01 03:00:00 MX -31.7571 57.3201 main 1173 1173 P____P___PP_P_ SH141970 -31.5252 57.4352 -1 -32.5035 56.9707 99 -31.5252 57.4352 TC 35 -31.5013 57.4683 2 -32.5035 56.9707 EX 40 23 123
1970040S16083 1970 13 SI MM JANE 1970-03-01 06:00:00 MX -32.4729 58.6492 reunion main 1274 1274 O____O___OP_O_ jtwc_sh SH141970 -32.4000 58.8000 -1 -33.0000 57.7000 5 9.90000 -32.4000 58.8000 TC 35 -32.3551 58.8221 2 -33.0000 57.7000 EX 40 29 121
1970040S16083 1970 13 SI MM JANE 1970-03-01 09:00:00 TS -33.2941 60.3050 main 1406 1406 P________PP___ SH141970 -33.3012 60.2990 -1 5 -33.3012 60.2990 TC 35 -33.2797 60.3172 2 EX 31 123
1970040S16083 1970 13 SI MM JANE 1970-03-01 12:00:00 TS -34.2000 61.8000 reunion main 1552 1552 O________OO___ jtwc_sh SH141970 -34.2000 61.8000 -1 -34.2000 61.8000 TC 35 -34.2000 61.8000 2 29 127
1970040S16083 1970 13 SI MM JANE 1970-03-01 15:00:00 TS -35.0291 63.0806 main 1606 1495 P________PP___ SH141970 -35.0123 63.0492 -1 -35.0123 63.0492 TC 30 -35.0627 63.1435 2 26 129
1970040S16083 1970 13 SI MM JANE 1970-03-01 18:00:00 TS -35.8243 64.2530 reunion main 1493 1385 O________OP___ jtwc_sh SH141970 -35.8000 64.2000 -1 -35.8000 64.2000 TC 25 -35.8730 64.3589 2 25 130
1970040S16083 1970 13 SI MM JANE 1970-03-01 21:00:00 TS -36.6146 65.4174 main 1385 1282 P________PP___ SH141970 -36.5982 65.3789 -1 -36.5982 65.3789 TC 25 -36.6475 65.4944 2 25 130
1970040S16083 1970 13 SI MM JANE 1970-03-02 00:00:00 TS -37.4000 66.6000 reunion main 1280 O________OO___ jtwc_sh SH141970 -37.4000 66.6000 -1 -37.4000 66.6000 TC 25 -37.4000 66.6000 1 25 130

IBTrACS Databaseについて

本データベースは、米国NOAAが公開する1842年以降の世界の熱帯低気圧のベストトラックデータアーカイブInternational Best Track Archive for Climate Stewardship (IBTrACS)を、ウェブで閲覧しやすい形式に変換したものです。

最終更新日:2021-11-26